createdAt,value
2023-05-09T00:00:57.632Z,19.00
2023-05-09T00:06:03.523Z,17.25
2023-05-09T00:11:08.345Z,17.00
2023-05-09T00:16:13.522Z,17.75
2023-05-09T00:21:18.545Z,19.00
2023-05-09T00:26:23.786Z,15.25
2023-05-09T00:31:28.608Z,19.00
2023-05-09T00:36:34.059Z,19.00
2023-05-09T00:41:39.302Z,19.00
2023-05-09T00:46:44.155Z,17.00
2023-05-09T00:51:49.679Z,18.00
2023-05-09T00:56:54.580Z,18.00
2023-05-09T01:01:59.662Z,18.50
2023-05-09T01:07:16.437Z,15.50
2023-05-09T01:12:28.457Z,14.50
2023-05-09T01:17:39.178Z,17.50
2023-05-09T01:22:47.681Z,17.25
2023-05-09T01:28:13.151Z,18.00
2023-05-09T01:33:20.042Z,17.00
2023-05-09T01:38:26.137Z,16.50
2023-05-09T01:43:31.986Z,15.75
2023-05-09T01:48:38.262Z,15.50
2023-05-09T01:53:44.060Z,17.75
2023-05-09T01:58:51.537Z,17.50
2023-05-09T02:03:56.684Z,16.00
2023-05-09T02:09:01.699Z,17.00
2023-05-09T02:14:08.840Z,18.25
2023-05-09T02:19:13.887Z,20.50
2023-05-09T02:24:19.236Z,19.00
2023-05-09T02:29:27.885Z,16.00
2023-05-09T02:34:33.458Z,17.50
2023-05-09T02:39:39.191Z,15.50
2023-05-09T02:44:43.974Z,18.00
2023-05-09T02:49:49.306Z,18.00
2023-05-09T02:54:54.212Z,17.25
2023-05-09T02:59:59.087Z,16.00
2023-05-09T03:05:04.816Z,17.00
2023-05-09T03:10:14.992Z,16.00
2023-05-09T03:15:20.195Z,16.75
2023-05-09T03:20:25.094Z,16.00
2023-05-09T03:25:30.193Z,16.75
2023-05-09T03:30:34.927Z,17.00
2023-05-09T03:35:40.916Z,16.00
2023-05-09T03:40:46.316Z,13.50
2023-05-09T03:45:52.410Z,17.00
2023-05-09T03:50:57.568Z,15.75
2023-05-09T03:56:05.088Z,14.00
2023-05-09T04:01:15.611Z,16.00
2023-05-09T04:06:22.168Z,16.00
2023-05-09T04:11:27.418Z,13.25
2023-05-09T04:16:33.171Z,21.50
2023-05-09T04:21:38.608Z,22.00
2023-05-09T04:26:43.666Z,22.00
2023-05-09T04:31:52.817Z,20.75
2023-05-09T04:37:01.404Z,21.00
2023-05-09T04:42:07.103Z,22.00
2023-05-09T04:47:12.195Z,21.00
2023-05-09T04:52:17.144Z,21.50
2023-05-09T04:57:21.900Z,21.75
2023-05-09T05:02:32.359Z,21.75
2023-05-09T05:07:37.678Z,21.50
2023-05-09T05:12:42.813Z,21.25
2023-05-09T05:17:50.223Z,20.50
2023-05-09T05:22:59.678Z,22.00
2023-05-09T05:28:06.025Z,20.00
2023-05-09T05:33:11.274Z,21.00
2023-05-09T05:38:16.543Z,19.00
2023-05-09T05:43:26.001Z,19.75
2023-05-09T05:48:30.925Z,19.50
2023-05-09T05:53:36.182Z,19.75
2023-05-09T05:58:41.047Z,19.00
2023-05-09T06:03:45.713Z,20.75
2023-05-09T06:08:51.606Z,18.25
2023-05-09T06:13:57.857Z,19.00
2023-05-09T06:19:02.736Z,18.25
2023-05-09T06:24:14.108Z,18.00
2023-05-09T06:29:21.325Z,18.00
2023-05-09T06:34:25.510Z,15.50
2023-05-09T06:39:30.056Z,17.25
2023-05-09T06:44:34.510Z,17.00
2023-05-09T06:49:38.990Z,15.25
2023-05-09T06:54:43.320Z,15.00
2023-05-09T06:59:48.026Z,14.50
2023-05-09T07:04:52.714Z,13.00
2023-05-09T07:10:07.385Z,14.00
2023-05-09T07:15:22.691Z,14.50
2023-05-09T07:20:33.793Z,13.25
2023-05-09T07:25:38.854Z,14.25
2023-05-09T07:30:45.019Z,11.75
2023-05-09T07:35:50.359Z,12.00
2023-05-09T07:40:55.256Z,14.50
2023-05-09T07:46:00.259Z,13.00
2023-05-09T07:51:04.858Z,12.00
2023-05-09T07:56:09.271Z,15.00
2023-05-09T08:01:13.593Z,10.75
2023-05-09T08:06:18.159Z,12.00
2023-05-09T08:11:23.057Z,13.25
2023-05-09T08:16:27.588Z,12.75
2023-05-09T08:21:32.084Z,13.25
2023-05-09T08:26:36.933Z,11.25
2023-05-09T08:31:41.349Z,11.50
2023-05-09T08:36:48.351Z,13.00
2023-05-09T08:41:53.716Z,12.25
2023-05-09T08:47:00.378Z,13.50
2023-05-09T08:52:04.941Z,17.50
2023-05-09T08:57:09.646Z,16.75
2023-05-09T09:02:15.901Z,15.50
2023-05-09T09:07:21.248Z,18.50
2023-05-09T09:12:26.464Z,18.75
2023-05-09T09:17:32.336Z,16.00
2023-05-09T09:22:37.201Z,14.50
2023-05-09T09:27:43.324Z,15.25
2023-05-09T09:32:48.016Z,15.00
2023-05-09T09:38:00.021Z,15.25
2023-05-09T09:43:08.663Z,14.25
2023-05-09T09:48:13.216Z,19.50
2023-05-09T09:53:17.811Z,16.25
2023-05-09T09:58:26.645Z,18.00
2023-05-09T10:03:37.167Z,15.50
2023-05-09T10:08:44.968Z,13.00
2023-05-09T10:13:49.514Z,16.50
2023-05-09T10:18:53.750Z,13.75
2023-05-09T10:23:58.767Z,15.25
2023-05-09T10:29:07.734Z,13.00
2023-05-09T10:34:15.027Z,14.50
2023-05-09T10:39:20.472Z,17.00
2023-05-09T10:44:25.584Z,13.00
2023-05-09T10:49:30.382Z,12.50
2023-05-09T10:54:38.233Z,16.25
2023-05-09T10:59:43.470Z,13.00
2023-05-09T11:04:48.080Z,15.75
2023-05-09T11:10:09.020Z,12.00
2023-05-09T11:15:14.385Z,12.75
2023-05-09T11:20:19.031Z,12.50
2023-05-09T11:25:27.338Z,11.25
2023-05-09T11:30:42.942Z,11.75
2023-05-09T11:35:47.261Z,10.00
2023-05-09T11:40:53.426Z,11.00
2023-05-09T11:45:58.673Z,13.00
2023-05-09T11:51:03.484Z,10.75
2023-05-09T11:56:07.983Z,11.25
2023-05-09T12:01:15.523Z,11.00
2023-05-09T12:06:21.026Z,9.50
2023-05-09T12:11:26.380Z,8.75
2023-05-09T12:16:32.697Z,8.50
2023-05-09T12:21:37.162Z,10.00
2023-05-09T12:26:41.808Z,9.00
2023-05-09T12:31:46.520Z,10.50
2023-05-09T12:36:54.602Z,7.50
2023-05-09T12:42:02.057Z,10.00
2023-05-09T12:47:07.620Z,10.00
2023-05-09T12:52:19.645Z,9.00
2023-05-09T12:57:25.611Z,9.00
2023-05-09T13:02:35.743Z,9.50
2023-05-09T13:07:44.357Z,9.00
2023-05-09T13:12:53.720Z,8.00
2023-05-09T13:17:59.251Z,9.00
2023-05-09T13:23:04.569Z,9.00
2023-05-09T13:28:10.209Z,9.75
2023-05-09T13:33:25.959Z,8.75
2023-05-09T13:38:38.233Z,7.00
2023-05-09T13:43:44.053Z,9.75
2023-05-09T13:48:49.364Z,7.00
2023-05-09T13:53:56.181Z,8.00
2023-05-09T13:59:13.281Z,7.25
2023-05-09T14:04:18.704Z,10.00
2023-05-09T14:09:23.861Z,9.00
2023-05-09T14:14:28.292Z,8.75
2023-05-09T14:19:34.244Z,8.00
2023-05-09T14:24:42.084Z,7.00
2023-05-09T14:29:47.367Z,8.00
2023-05-09T14:34:52.890Z,7.75
2023-05-09T14:39:58.198Z,7.25
2023-05-09T14:45:02.997Z,7.25
2023-05-09T14:50:08.714Z,7.00
2023-05-09T14:55:13.993Z,7.25
2023-05-09T15:00:22.500Z,8.25
2023-05-09T15:05:28.010Z,6.00
2023-05-09T15:10:34.141Z,7.25
2023-05-09T15:15:44.114Z,6.25
2023-05-09T15:20:54.949Z,8.00
2023-05-09T15:26:00.125Z,6.00
2023-05-09T15:31:07.263Z,5.25
2023-05-09T15:36:12.061Z,6.00
2023-05-09T15:41:20.023Z,7.25
2023-05-09T15:46:25.373Z,6.00
2023-05-09T15:51:32.169Z,6.50
2023-05-09T15:56:37.337Z,6.50
2023-05-09T16:01:42.922Z,6.00
2023-05-09T16:06:53.228Z,7.00
2023-05-09T16:11:59.578Z,7.50
2023-05-09T16:17:04.684Z,6.25
2023-05-09T16:22:13.005Z,5.00
2023-05-09T16:27:18.659Z,8.00
2023-05-09T16:32:25.217Z,6.00
2023-05-09T16:37:32.202Z,5.75
2023-05-09T16:42:44.301Z,6.00
2023-05-09T16:47:49.200Z,5.50
2023-05-09T16:52:54.930Z,6.25
2023-05-09T16:58:00.102Z,6.00
2023-05-09T17:03:05.021Z,4.50
2023-05-09T17:08:10.254Z,5.25
2023-05-09T17:13:15.642Z,5.75
2023-05-09T17:18:33.270Z,5.75
2023-05-09T17:23:43.254Z,6.00
2023-05-09T17:28:48.378Z,6.00
2023-05-09T17:33:53.684Z,5.25
2023-05-09T17:38:58.809Z,5.25
2023-05-09T17:44:03.819Z,5.00
2023-05-09T17:49:14.993Z,4.75
2023-05-09T17:54:22.783Z,5.00
2023-05-09T17:59:28.400Z,7.00
2023-05-09T18:04:35.554Z,5.50
2023-05-09T18:09:40.478Z,4.00
2023-05-09T18:14:45.414Z,5.25
2023-05-09T18:19:50.571Z,5.00
2023-05-09T18:24:55.694Z,5.00
2023-05-09T18:30:00.651Z,5.00
2023-05-09T18:35:05.594Z,5.75
2023-05-09T18:40:16.427Z,5.00
2023-05-09T18:45:22.748Z,5.00
2023-05-09T18:50:27.756Z,6.00
2023-05-09T18:55:32.824Z,4.00
2023-05-09T19:00:37.996Z,6.00
2023-05-09T19:05:43.337Z,5.00
2023-05-09T19:10:48.030Z,3.00
2023-05-09T19:15:53.045Z,3.75
2023-05-09T19:20:59.250Z,5.00
2023-05-09T19:26:04.956Z,4.00
2023-05-09T19:31:10.466Z,3.25
2023-05-09T19:36:15.501Z,4.00
2023-05-09T19:41:20.275Z,4.00
2023-05-09T19:46:25.330Z,4.00
2023-05-09T19:51:30.958Z,3.00
2023-05-09T19:56:35.764Z,4.25
2023-05-09T20:01:40.687Z,4.75
2023-05-09T20:06:46.622Z,6.25
2023-05-09T20:11:51.836Z,4.75
2023-05-09T20:16:56.622Z,4.25
2023-05-09T20:22:02.541Z,3.75
2023-05-09T20:27:07.577Z,4.25
2023-05-09T20:32:12.620Z,4.25
2023-05-09T20:37:17.506Z,3.50
2023-05-09T20:42:22.455Z,3.50
2023-05-09T20:47:28.020Z,3.00
2023-05-09T20:52:32.663Z,4.00
2023-05-09T20:57:37.713Z,4.25
2023-05-09T21:02:42.903Z,4.00
2023-05-09T21:07:47.812Z,4.00
2023-05-09T21:12:52.732Z,5.00
2023-05-09T21:17:58.488Z,5.00
2023-05-09T21:23:03.325Z,3.50
2023-05-09T21:28:08.611Z,3.00
2023-05-09T21:33:13.493Z,3.50
2023-05-09T21:38:18.245Z,3.50
2023-05-09T21:43:23.660Z,4.00
2023-05-09T21:48:28.593Z,3.25
2023-05-09T21:53:33.410Z,2.25
2023-05-09T21:58:39.162Z,3.00
2023-05-09T22:03:44.659Z,4.00
2023-05-09T22:08:49.494Z,3.50
2023-05-09T22:13:54.212Z,3.00
2023-05-09T22:18:58.985Z,3.75
2023-05-09T22:24:03.707Z,4.75
2023-05-09T22:29:08.899Z,7.25
2023-05-09T22:34:13.853Z,3.50
2023-05-09T22:39:18.794Z,6.75
2023-05-09T22:44:23.595Z,4.25
2023-05-09T22:49:28.215Z,4.00
2023-05-09T22:54:32.836Z,5.75
2023-05-09T22:59:38.334Z,7.75
2023-05-09T23:04:43.295Z,5.00
2023-05-09T23:09:48.113Z,8.00
2023-05-09T23:14:53.163Z,4.75
2023-05-09T23:19:57.899Z,6.75
2023-05-09T23:25:03.014Z,7.00
2023-05-09T23:30:08.925Z,6.75
2023-05-09T23:35:13.811Z,6.25
2023-05-09T23:40:18.775Z,6.50
2023-05-09T23:45:24.211Z,7.50
2023-05-09T23:50:29.264Z,6.50
2023-05-09T23:55:34.226Z,6.50
